LNAZA ENZV-ENZV
Flight info
| Callsign | LNAZA |
|---|---|
| Flight time | N/A |
| Altitude | 5000 |
| Route | VFR |
| Aircraft | C172/L-SFG/C |
Departure
| Time | 2026-05-08 19:57 |
|---|---|
| Airport | Stavanger Airport, Sola (ENZV) |
Arrival
| Time | N/A |
|---|---|
| Airport | Stavanger Airport, Sola (ENZV) |
| Time | Latitude | Longitude | Altitude | Speed | Heading |
|---|---|---|---|---|---|
| 2026-05-08 19:51 | 58.89285 | 5.63279 | 18 ft | 0 kts | 270° |
| 2026-05-08 19:54 | 58.89285 | 5.63278 | 18 ft | 0 kts | 269° |
| 2026-05-08 19:54 | 58.89292 | 5.63300 | 17 ft | 8 kts | 42° |
| 2026-05-08 19:54 | 58.89341 | 5.63347 | 14 ft | 7 kts | 77° |
| 2026-05-08 19:55 | 58.89343 | 5.63418 | 13 ft | 3 kts | 91° |
| 2026-05-08 19:55 | 58.89343 | 5.63440 | 12 ft | 4 kts | 93° |
| 2026-05-08 19:55 | 58.89345 | 5.63624 | 10 ft | 22 kts | 92° |
| 2026-05-08 19:55 | 58.89219 | 5.63748 | 11 ft | 38 kts | 175° |
| 2026-05-08 19:56 | 58.88818 | 5.63734 | 73 ft | 66 kts | 181° |
| 2026-05-08 19:56 | 58.88379 | 5.63755 | 305 ft | 58 kts | 176° |
| 2026-05-08 19:56 | 58.87944 | 5.63780 | 418 ft | 72 kts | 182° |
| 2026-05-08 19:56 | 58.87436 | 5.63731 | 609 ft | 73 kts | 175° |
| 2026-05-08 19:57 | 58.87007 | 5.64309 | 719 ft | 82 kts | 128° |
| 2026-05-08 19:57 | 58.86837 | 5.65366 | 833 ft | 89 kts | 111° |
| 2026-05-08 19:57 | 58.86772 | 5.66571 | 949 ft | 94 kts | 91° |
| 2026-05-08 19:57 | 58.86962 | 5.67811 | 1072 ft | 97 kts | 79° |
| 2026-05-08 19:58 | 58.87049 | 5.69113 | 1079 ft | 100 kts | 106° |
| 2026-05-08 19:58 | 58.86761 | 5.70314 | 1076 ft | 99 kts | 139° |
| 2026-05-08 19:58 | 58.86194 | 5.71048 | 1070 ft | 100 kts | 157° |
| 2026-05-08 19:58 | 58.85603 | 5.71758 | 1057 ft | 102 kts | 148° |
| 2026-05-08 19:59 | 58.85205 | 5.72924 | 1045 ft | 109 kts | 114° |
| 2026-05-08 19:59 | 58.85168 | 5.74391 | 1038 ft | 114 kts | 86° |
| 2026-05-08 19:59 | 58.85577 | 5.75754 | 1038 ft | 120 kts | 51° |
| 2026-05-08 19:59 | 58.86322 | 5.76498 | 1025 ft | 124 kts | 17° |
| 2026-05-08 20:00 | 58.87172 | 5.76626 | 1045 ft | 122 kts | 5° |
| 2026-05-08 20:00 | 58.88020 | 5.76652 | 1047 ft | 122 kts | 4° |
| 2026-05-08 20:00 | 58.88866 | 5.76574 | 1048 ft | 123 kts | 355° |
| 2026-05-08 20:00 | 58.89709 | 5.76341 | 1068 ft | 122 kts | 354° |
| 2026-05-08 20:01 | 58.90521 | 5.76103 | 1177 ft | 115 kts | 353° |
| 2026-05-08 20:01 | 58.91291 | 5.75870 | 1313 ft | 110 kts | 353° |
| 2026-05-08 20:01 | 58.92086 | 5.75629 | 1288 ft | 120 kts | 352° |
| 2026-05-08 20:01 | 58.92866 | 5.75044 | 1272 ft | 117 kts | 332° |
| 2026-05-08 20:02 | 58.93489 | 5.74162 | 1270 ft | 105 kts | 317° |
| 2026-05-08 20:02 | 58.93912 | 5.73115 | 1267 ft | 94 kts | 288° |
| 2026-05-08 20:02 | 58.94061 | 5.71947 | 1274 ft | 86 kts | 269° |
| 2026-05-08 20:02 | 58.94020 | 5.70826 | 1287 ft | 81 kts | 256° |
| 2026-05-08 20:03 | 58.93941 | 5.69749 | 1299 ft | 81 kts | 255° |
| 2026-05-08 20:03 | 58.93823 | 5.68698 | 1292 ft | 79 kts | 247° |
| 2026-05-08 20:03 | 58.93663 | 5.67687 | 1298 ft | 78 kts | 246° |
| 2026-05-08 20:03 | 58.93496 | 5.66661 | 1247 ft | 83 kts | 246° |
| 2026-05-08 20:04 | 58.93319 | 5.65627 | 1206 ft | 74 kts | 243° |
| 2026-05-08 20:04 | 58.93076 | 5.64781 | 1086 ft | 69 kts | 227° |
| 2026-05-08 20:04 | 58.92736 | 5.64252 | 1014 ft | 58 kts | 210° |
| 2026-05-08 20:04 | 58.92361 | 5.63894 | 868 ft | 59 kts | 194° |
| 2026-05-08 20:05 | 58.91961 | 5.63733 | 774 ft | 56 kts | 184° |
| 2026-05-08 20:05 | 58.91555 | 5.63679 | 654 ft | 61 kts | 187° |
| 2026-05-08 20:05 | 58.91139 | 5.63690 | 524 ft | 59 kts | 178° |
| 2026-05-08 20:05 | 58.90723 | 5.63709 | 390 ft | 64 kts | 176° |
| 2026-05-08 20:06 | 58.90287 | 5.63719 | 286 ft | 63 kts | 183° |
| 2026-05-08 20:06 | 58.89858 | 5.63717 | 192 ft | 61 kts | 183° |
| 2026-05-08 20:06 | 58.89432 | 5.63730 | 92 ft | 61 kts | 182° |
| 2026-05-08 20:06 | 58.89013 | 5.63743 | 20 ft | 53 kts | 183° |
| 2026-05-08 20:07 | 58.88695 | 5.63752 | 21 ft | 56 kts | 176° |
| 2026-05-08 20:07 | 58.88222 | 5.63779 | 104 ft | 72 kts | 176° |
| 2026-05-08 20:07 | 58.87722 | 5.63800 | 263 ft | 73 kts | 186° |
| 2026-05-08 20:07 | 58.87246 | 5.63443 | 430 ft | 73 kts | 200° |
| 2026-05-08 20:08 | 58.86807 | 5.62965 | 591 ft | 74 kts | 213° |
| 2026-05-08 20:08 | 58.86540 | 5.62057 | 654 ft | 90 kts | 249° |
| 2026-05-08 20:08 | 58.86552 | 5.60744 | 643 ft | 102 kts | 270° |
| 2026-05-08 20:08 | 58.86615 | 5.59364 | 672 ft | 101 kts | 263° |
| 2026-05-08 20:09 | 58.86618 | 5.58059 | 771 ft | 97 kts | 262° |
| 2026-05-08 20:09 | 58.86564 | 5.56803 | 869 ft | 89 kts | 239° |
| 2026-05-08 20:09 | 58.86155 | 5.56057 | 1028 ft | 77 kts | 201° |
| 2026-05-08 20:09 | 58.85632 | 5.55614 | 1014 ft | 87 kts | 197° |
| 2026-05-08 20:10 | 58.85046 | 5.55164 | 1016 ft | 91 kts | 197° |
| 2026-05-08 20:10 | 58.84420 | 5.54852 | 1012 ft | 93 kts | 189° |
| 2026-05-08 20:10 | 58.83794 | 5.54927 | 1011 ft | 93 kts | 153° |